Time;durP1;ratioP1;P1;durP2;ratioP2;P2;SDS_P1;SDS_P2;PMS_P1;PMS_P2;Temp;Humidity;BMP_temperature;BMP_pressure;BME280_temperature;BME280_humidity;BME280_pressure;Samples;Min_cycle;Max_cycle;Signal;HPM_P1;HPM_P2
2022/07/05 00:01:05;;;;;;;5.78;3.50;;;16.10;83.40;;;;;;5104378;27;20128;-43
2022/07/05 00:03:31;;;;;;;6.75;3.10;;;16.00;84.30;;;;;;5104590;28;20091;-43
2022/07/05 00:05:58;;;;;;;4.88;2.67;;;16.00;85.60;;;;;;5106699;27;20130;-43
2022/07/05 00:08:25;;;;;;;5.57;3.45;;;15.90;84.90;;;;;;5109559;28;20131;-42
2022/07/05 00:10:52;;;;;;;6.88;3.40;;;15.90;85.10;;;;;;5098413;27;20083;-42
2022/07/05 00:13:18;;;;;;;5.47;3.30;;;15.90;85.40;;;;;;5108307;27;20050;-43
2022/07/05 00:15:46;;;;;;;5.18;3.55;;;15.90;85.50;;;;;;5113800;27;20461;-43
2022/07/05 00:18:13;;;;;;;9.27;4.05;;;15.80;85.80;;;;;;5102230;28;20079;-43
2022/07/05 00:20:40;;;;;;;8.38;4.47;;;15.80;86.60;;;;;;5109120;28;20040;-43
2022/07/05 00:23:07;;;;;;;6.93;3.75;;;15.80;86.90;;;;;;5113715;27;20075;-43
2022/07/05 00:25:34;;;;;;;7.20;4.18;;;15.70;87.00;;;;;;5108095;27;20134;-42
2022/07/05 00:28:00;;;;;;;8.15;4.43;;;15.70;87.40;;;;;;5113336;27;20056;-43
2022/07/05 00:30:27;;;;;;;6.35;3.85;;;15.70;88.00;;;;;;5102288;27;20086;-43
2022/07/05 00:32:55;;;;;;;6.78;3.90;;;15.70;88.00;;;;;;5108055;27;20087;-43
2022/07/05 00:35:22;;;;;;;10.88;4.40;;;15.60;88.70;;;;;;5100681;28;20087;-43
2022/07/05 00:37:49;;;;;;;6.05;3.13;;;15.60;88.60;;;;;;5111824;27;20122;-43
2022/07/05 00:40:16;;;;;;;7.55;3.50;;;15.60;88.10;;;;;;5114481;28;20087;-43
2022/07/05 00:42:42;;;;;;;5.00;3.00;;;15.60;88.00;;;;;;5102715;28;20058;-43
2022/07/05 00:45:10;;;;;;;6.93;4.13;;;15.50;87.80;;;;;;5113802;27;20075;-43
2022/07/05 00:47:37;;;;;;;6.40;3.67;;;15.60;89.50;;;;;;5110055;27;20047;-42
2022/07/05 00:50:06;;;;;;;6.93;3.22;;;15.50;89.80;;;;;;5095799;27;20083;-43
2022/07/05 00:52:33;;;;;;;4.30;3.33;;;15.50;89.70;;;;;;5094777;28;20128;-42
2022/07/05 00:55:00;;;;;;;5.85;3.70;;;15.40;90.00;;;;;;5107640;28;20134;-42
2022/07/05 00:57:26;;;;;;;6.20;3.60;;;15.50;89.70;;;;;;5114277;28;20083;-42
2022/07/05 00:59:53;;;;;;;6.70;3.67;;;15.40;90.30;;;;;;5113872;28;20130;-42
2022/07/05 01:02:22;;;;;;;9.85;4.28;;;15.40;90.30;;;;;;5097281;28;20127;-42
2022/07/05 01:04:49;;;;;;;5.50;3.35;;;15.40;90.80;;;;;;5096040;27;20531;-42
2022/07/05 01:07:19;;;;;;;5.65;3.15;;;15.40;90.60;;;;;;5109233;27;20101;-42
2022/07/05 01:09:45;;;;;;;5.75;3.45;;;15.40;90.60;;;;;;5104756;28;20483;-43
2022/07/05 01:12:12;;;;;;;6.60;3.55;;;15.30;90.40;;;;;;5101891;27;20551;-42
2022/07/05 01:14:39;;;;;;;4.93;3.58;;;15.30;90.60;;;;;;5095144;28;20211;-42
2022/07/05 01:17:06;;;;;;;5.50;2.70;;;15.30;90.70;;;;;;5101705;28;20093;-41
2022/07/05 01:19:32;;;;;;;6.78;3.72;;;15.20;90.60;;;;;;5113512;27;20082;-42
2022/07/05 01:21:59;;;;;;;6.03;3.33;;;15.20;90.70;;;;;;5111679;28;20059;-42
2022/07/05 01:24:27;;;;;;;8.70;3.63;;;15.20;90.90;;;;;;5110874;27;20047;-43
2022/07/05 01:26:54;;;;;;;7.63;4.10;;;15.20;91.10;;;;;;5110358;28;20102;-42
2022/07/05 01:29:21;;;;;;;6.20;3.55;;;15.20;91.70;;;;;;5103811;27;20113;-43
2022/07/05 01:31:47;;;;;;;4.53;3.50;;;15.10;91.70;;;;;;5109255;27;20075;-44
2022/07/05 01:34:14;;;;;;;5.28;2.63;;;15.10;91.80;;;;;;5105529;27;20131;-42
2022/07/05 01:36:41;;;;;;;5.32;3.17;;;15.00;91.50;;;;;;5102429;28;20481;-42
2022/07/05 01:39:08;;;;;;;5.13;2.88;;;15.00;91.50;;;;;;5104174;27;20050;-42
2022/07/05 01:41:36;;;;;;;5.32;3.25;;;15.00;91.70;;;;;;5099198;28;20047;-43
2022/07/05 01:44:04;;;;;;;6.45;3.40;;;15.00;91.50;;;;;;5107719;27;20055;-42
2022/07/05 01:46:32;;;;;;;4.45;3.10;;;14.90;91.80;;;;;;5101044;27;20097;-42
2022/07/05 01:48:59;;;;;;;7.57;3.90;;;14.90;91.80;;;;;;5093490;28;20048;-43
2022/07/05 01:51:26;;;;;;;5.28;3.90;;;14.90;91.80;;;;;;5106552;28;20131;-43
2022/07/05 01:53:53;;;;;;;6.10;3.92;;;14.90;92.10;;;;;;5110002;27;20410;-43
2022/07/05 01:56:20;;;;;;;4.35;3.20;;;14.80;92.10;;;;;;5110208;28;20451;-43
2022/07/05 01:58:48;;;;;;;5.18;3.42;;;14.90;92.10;;;;;;5112828;28;20047;-43
2022/07/05 02:01:15;;;;;;;5.43;3.40;;;14.80;92.10;;;;;;5105443;28;20075;-43
2022/07/05 02:03:42;;;;;;;8.73;3.60;;;14.80;92.20;;;;;;5100932;27;20209;-43
2022/07/05 02:06:10;;;;;;;7.10;3.75;;;14.80;92.10;;;;;;5097537;27;20084;-43
2022/07/05 02:08:37;;;;;;;10.07;3.92;;;14.70;92.20;;;;;;5109545;27;20119;-44
2022/07/05 02:11:04;;;;;;;4.75;3.83;;;14.80;92.50;;;;;;5107779;28;20079;-43
2022/07/05 02:13:30;;;;;;;7.35;3.45;;;14.70;92.70;;;;;;5110425;27;20146;-43
2022/07/05 02:15:59;;;;;;;5.97;3.30;;;14.70;92.30;;;;;;5094707;28;20052;-43
2022/07/05 02:18:25;;;;;;;5.75;3.97;;;14.70;92.20;;;;;;5112926;27;20132;-43
2022/07/05 02:20:52;;;;;;;5.65;3.95;;;14.60;92.30;;;;;;5112276;27;20071;-42
2022/07/05 02:23:19;;;;;;;7.30;3.95;;;14.60;92.30;;;;;;5112695;28;20150;-42
2022/07/05 02:25:47;;;;;;;9.55;4.40;;;14.60;92.50;;;;;;5109335;27;20131;-43
2022/07/05 02:28:14;;;;;;;6.70;3.95;;;14.60;92.80;;;;;;5105934;27;20116;-42
2022/07/05 02:30:40;;;;;;;7.18;4.38;;;14.60;92.80;;;;;;5112150;28;20059;-42
2022/07/05 02:33:09;;;;;;;8.23;4.38;;;14.50;93.10;;;;;;5111938;28;20079;-42
2022/07/05 02:35:35;;;;;;;5.47;3.38;;;14.50;93.10;;;;;;5111920;28;20503;-42
2022/07/05 02:38:02;;;;;;;8.10;4.25;;;14.50;92.90;;;;;;5110189;28;20123;-43
2022/07/05 02:40:29;;;;;;;4.65;3.92;;;14.50;93.00;;;;;;5111872;27;20554;-43
2022/07/05 02:42:56;;;;;;;5.03;3.55;;;14.40;93.10;;;;;;5110340;28;20130;-42
2022/07/05 02:45:24;;;;;;;5.82;3.38;;;14.40;92.90;;;;;;5111747;28;20048;-43
2022/07/05 02:47:50;;;;;;;5.47;4.03;;;14.40;92.80;;;;;;5112182;28;20124;-42
2022/07/05 02:50:18;;;;;;;5.63;3.85;;;14.40;93.00;;;;;;5102475;28;20065;-42
2022/07/05 02:52:45;;;;;;;5.78;4.32;;;14.40;93.20;;;;;;5104142;28;20123;-42
2022/07/05 02:55:12;;;;;;;5.28;4.47;;;14.30;93.30;;;;;;5094959;28;20045;-42
2022/07/05 02:57:39;;;;;;;6.05;4.32;;;14.30;93.60;;;;;;5107086;27;20102;-43
2022/07/05 03:00:07;;;;;;;8.45;4.43;;;14.20;93.70;;;;;;5095704;28;20071;-42
2022/07/05 03:02:33;;;;;;;6.90;4.20;;;14.30;93.70;;;;;;5108620;28;20408;-43
2022/07/05 03:05:00;;;;;;;6.70;4.28;;;14.30;93.80;;;;;;5112415;28;20468;-43
2022/07/05 03:07:28;;;;;;;6.90;4.22;;;14.30;93.60;;;;;;5108352;28;20490;-43
2022/07/05 03:09:55;;;;;;;6.05;3.85;;;14.20;93.80;;;;;;5098817;27;20099;-42
2022/07/05 03:12:22;;;;;;;5.35;4.63;;;14.20;93.90;;;;;;5098781;27;20063;-42
2022/07/05 03:14:49;;;;;;;6.05;4.20;;;14.10;94.20;;;;;;5098196;27;20123;-43
2022/07/05 03:17:15;;;;;;;7.13;4.47;;;14.20;94.40;;;;;;5111531;28;20206;-43
2022/07/05 03:19:42;;;;;;;5.55;4.60;;;14.10;94.30;;;;;;5095789;28;20134;-43
2022/07/05 03:22:09;;;;;;;6.45;4.47;;;14.10;94.50;;;;;;5111108;27;20126;-43
2022/07/05 03:24:37;;;;;;;5.65;4.72;;;14.10;94.80;;;;;;5107043;28;20126;-43
2022/07/05 03:27:04;;;;;;;9.82;4.97;;;14.10;94.70;;;;;;5108893;28;20078;-43
2022/07/05 03:29:31;;;;;;;8.23;4.50;;;14.10;94.80;;;;;;5101948;28;20130;-42
2022/07/05 03:31:58;;;;;;;6.82;4.20;;;14.10;95.00;;;;;;5108303;28;20051;-43
2022/07/05 03:34:24;;;;;;;6.10;4.38;;;14.00;94.80;;;;;;5106635;28;20082;-43
2022/07/05 03:36:51;;;;;;;4.78;4.15;;;14.00;94.80;;;;;;5112112;28;20134;-42
2022/07/05 03:39:18;;;;;;;5.10;4.05;;;14.00;94.80;;;;;;5110560;28;20078;-43
2022/07/05 03:41:46;;;;;;;8.30;4.95;;;14.00;94.60;;;;;;5094392;28;20080;-43
2022/07/05 03:44:13;;;;;;;7.90;5.13;;;14.00;94.70;;;;;;5093499;28;20076;-43
2022/07/05 03:46:40;;;;;;;6.75;5.40;;;14.00;95.10;;;;;;5108277;28;20047;-43
2022/07/05 03:49:06;;;;;;;6.15;5.18;;;14.00;95.10;;;;;;5107982;28;20133;-43
2022/07/05 03:51:33;;;;;;;8.95;4.85;;;14.00;95.20;;;;;;5097407;28;21408;-43
2022/07/05 03:54:00;;;;;;;7.53;5.32;;;13.90;95.10;;;;;;5107505;28;20130;-43
2022/07/05 03:56:27;;;;;;;6.97;5.10;;;13.90;95.20;;;;;;5106024;28;20076;-43
2022/07/05 03:58:55;;;;;;;7.85;4.60;;;13.90;95.00;;;;;;5107510;28;20135;-43
2022/07/05 04:01:22;;;;;;;5.38;3.92;;;13.90;94.90;;;;;;5107373;28;20079;-42
2022/07/05 04:03:48;;;;;;;7.50;4.40;;;13.90;94.80;;;;;;5092751;28;20044;-42
2022/07/05 04:06:15;;;;;;;7.07;4.90;;;13.90;94.70;;;;;;5097344;28;20126;-42
2022/07/05 04:08:42;;;;;;;5.18;4.68;;;13.90;95.00;;;;;;5095942;28;20471;-41
2022/07/05 04:11:10;;;;;;;7.47;6.55;;;13.90;95.00;;;;;;5098902;28;20135;-42
2022/07/05 04:13:37;;;;;;;6.45;4.90;;;13.90;95.60;;;;;;5112619;28;20044;-42
2022/07/05 04:16:05;;;;;;;7.15;5.70;;;13.90;95.60;;;;;;5108895;28;20054;-43
2022/07/05 04:18:32;;;;;;;7.15;5.57;;;13.90;95.80;;;;;;5106441;28;20132;-43
2022/07/05 04:20:59;;;;;;;9.27;6.28;;;13.90;95.80;;;;;;5107831;28;20146;-43
2022/07/05 04:23:26;;;;;;;10.32;5.57;;;13.90;96.10;;;;;;5104536;28;20078;-43
2022/07/05 04:25:52;;;;;;;15.00;6.95;;;14.00;96.10;;;;;;5108866;28;20083;-43
2022/07/05 04:28:19;;;;;;;7.80;6.35;;;13.90;96.40;;;;;;5109395;28;20086;-43
2022/07/05 04:30:46;;;;;;;9.35;7.28;;;14.00;96.80;;;;;;5109608;28;20131;-42
2022/07/05 04:33:14;;;;;;;7.63;5.78;;;14.00;97.30;;;;;;5110540;28;20096;-43
2022/07/05 04:35:41;;;;;;;8.05;6.05;;;14.00;97.10;;;;;;5092604;28;20078;-42
2022/07/05 04:38:07;;;;;;;8.95;6.43;;;14.00;97.20;;;;;;5098221;28;20083;-43
2022/07/05 04:40:34;;;;;;;9.82;7.05;;;14.00;97.40;;;;;;5107440;28;20105;-43
2022/07/05 04:43:01;;;;;;;7.18;6.43;;;14.00;97.90;;;;;;5094929;28;20091;-43
2022/07/05 04:45:28;;;;;;;12.73;6.75;;;14.10;98.10;;;;;;5095668;27;20474;-41
2022/07/05 04:47:54;;;;;;;13.68;8.30;;;14.10;98.60;;;;;;5098786;27;20468;-42
2022/07/05 04:50:23;;;;;;;9.57;6.95;;;14.10;98.90;;;;;;5097962;27;20462;-42
2022/07/05 04:52:50;;;;;;;5.38;4.80;;;14.20;98.90;;;;;;5101808;27;20087;-42
2022/07/05 04:55:17;;;;;;;12.65;7.40;;;14.20;98.40;;;;;;5112994;27;20093;-42
2022/07/05 04:57:43;;;;;;;8.23;7.15;;;14.20;98.80;;;;;;5114599;28;20134;-42
2022/07/05 05:00:12;;;;;;;10.27;7.32;;;14.30;99.20;;;;;;5113485;27;20439;-42
2022/07/05 05:02:38;;;;;;;12.00;7.75;;;14.30;99.60;;;;;;5086002;28;20540;-43
2022/07/05 05:05:06;;;;;;;9.45;7.47;;;14.30;99.90;;;;;;5109023;27;20557;-42
2022/07/05 05:07:34;;;;;;;10.07;7.38;;;14.40;99.90;;;;;;5113739;27;20075;-42
2022/07/05 05:10:01;;;;;;;9.70;7.53;;;14.50;99.90;;;;;;5107356;28;20069;-42
2022/07/05 05:12:28;;;;;;;9.75;7.35;;;14.50;99.90;;;;;;5110446;28;20540;-42
2022/07/05 05:14:54;;;;;;;21.42;7.45;;;14.60;99.90;;;;;;5111863;27;20551;-43
2022/07/05 05:17:21;;;;;;;11.05;7.50;;;14.70;99.90;;;;;;5112998;28;20146;-44
2022/07/05 05:19:48;;;;;;;12.45;7.72;;;14.70;99.90;;;;;;5110504;27;20203;-43
2022/07/05 05:22:15;;;;;;;9.45;7.28;;;14.80;99.90;;;;;;5113929;27;20139;-43
2022/07/05 05:24:43;;;;;;;9.98;6.82;;;14.90;99.90;;;;;;5104253;28;20082;-43
2022/07/05 05:27:09;;;;;;;8.98;6.93;;;15.00;99.90;;;;;;5103363;28;20048;-43
2022/07/05 05:29:36;;;;;;;7.38;6.28;;;15.00;99.90;;;;;;5106852;28;20092;-42
2022/07/05 05:32:03;;;;;;;9.25;7.00;;;15.20;99.90;;;;;;5105137;27;20079;-43
2022/07/05 05:34:30;;;;;;;15.07;7.35;;;15.30;99.90;;;;;;5101196;27;20102;-42
2022/07/05 05:36:57;;;;;;;10.20;6.68;;;15.40;99.90;;;;;;5108892;28;20138;-42
2022/07/05 05:39:23;;;;;;;8.68;6.10;;;15.50;99.90;;;;;;5104433;28;20472;-42
2022/07/05 05:41:51;;;;;;;9.75;6.75;;;15.60;99.90;;;;;;5113366;28;20124;-43
2022/07/05 05:44:18;;;;;;;9.05;6.43;;;15.70;99.90;;;;;;5096747;28;20148;-42
2022/07/05 05:46:45;;;;;;;10.07;6.97;;;15.80;99.90;;;;;;5095135;28;20146;-42
2022/07/05 05:49:12;;;;;;;14.05;6.50;;;15.90;99.90;;;;;;5113267;27;20086;-43
2022/07/05 05:51:38;;;;;;;7.47;5.53;;;16.00;99.90;;;;;;5102792;28;20130;-42
2022/07/05 05:54:05;;;;;;;8.75;5.68;;;16.10;99.90;;;;;;5107686;28;20064;-43
2022/07/05 05:56:32;;;;;;;7.97;5.28;;;16.20;99.90;;;;;;5112924;27;20083;-42
2022/07/05 05:59:00;;;;;;;14.38;4.97;;;16.40;99.90;;;;;;5112368;28;20108;-43
2022/07/05 06:01:27;;;;;;;7.03;4.65;;;16.50;99.90;;;;;;5102795;27;20088;-42
2022/07/05 06:03:54;;;;;;;7.07;4.63;;;16.60;99.80;;;;;;5124790;27;20154;-42
2022/07/05 06:06:20;;;;;;;10.13;4.90;;;16.70;99.50;;;;;;5109273;28;20088;-42
2022/07/05 06:08:47;;;;;;;8.45;4.00;;;16.80;99.30;;;;;;5110520;28;20151;-42
2022/07/05 06:11:14;;;;;;;6.53;3.95;;;17.00;99.10;;;;;;5102580;28;20076;-42
2022/07/05 06:13:42;;;;;;;7.63;3.55;;;17.20;98.90;;;;;;5112929;28;20091;-42
2022/07/05 06:16:10;;;;;;;5.10;3.72;;;17.30;98.50;;;;;;5110600;27;20051;-43
2022/07/05 06:18:37;;;;;;;7.97;3.42;;;17.50;98.00;;;;;;5102550;27;20523;-42
2022/07/05 06:21:04;;;;;;;6.80;3.42;;;17.60;97.70;;;;;;5099186;27;20479;-43
2022/07/05 06:23:30;;;;;;;5.97;3.45;;;17.70;97.70;;;;;;5092690;28;20044;-43
2022/07/05 06:25:57;;;;;;;8.07;3.20;;;17.80;97.60;;;;;;5110280;27;20406;-43
2022/07/05 06:28:24;;;;;;;7.03;3.25;;;17.90;97.50;;;;;;5096358;28;20105;-42
2022/07/05 06:30:52;;;;;;;6.85;3.47;;;18.00;97.20;;;;;;5092370;28;20507;-42
2022/07/05 06:33:20;;;;;;;8.05;2.85;;;18.20;97.20;;;;;;5103505;27;20048;-41
2022/07/05 06:35:47;;;;;;;7.88;3.10;;;18.40;96.90;;;;;;5134004;27;20066;-42
2022/07/05 06:38:14;;;;;;;7.60;2.75;;;18.40;96.60;;;;;;5098147;27;20595;-43
2022/07/05 06:40:43;;;;;;;6.78;2.75;;;18.60;96.50;;;;;;5109344;28;20562;-43
2022/07/05 06:43:11;;;;;;;6.72;2.33;;;18.70;96.30;;;;;;5109688;27;20050;-43
2022/07/05 06:45:38;;;;;;;5.88;2.42;;;18.80;96.00;;;;;;5119567;27;20102;-43
2022/07/05 06:48:05;;;;;;;4.78;2.13;;;18.80;95.90;;;;;;5111807;28;20048;-43
2022/07/05 06:50:35;;;;;;;4.38;2.08;;;18.80;95.80;;;;;;5114535;27;20097;-42
2022/07/05 06:53:02;;;;;;;7.20;2.00;;;18.90;95.40;;;;;;5100079;28;20055;-42
2022/07/05 06:55:29;;;;;;;5.60;1.88;;;18.90;95.30;;;;;;5094514;28;20518;-43
2022/07/05 06:57:59;;;;;;;11.05;2.00;;;19.10;94.90;;;;;;5094667;28;20097;-43
2022/07/05 07:00:26;;;;;;;5.20;1.90;;;19.20;94.50;;;;;;5112866;28;20476;-44
2022/07/05 07:02:53;;;;;;;7.22;1.80;;;19.30;94.30;;;;;;5112773;28;20093;-43
2022/07/05 07:05:20;;;;;;;5.88;1.50;;;19.50;94.10;;;;;;5111912;28;20079;-43
2022/07/05 07:10:32;;;;;;;6.25;1.48;;;19.80;93.20;;;;;;5112574;28;20052;-43
2022/07/05 07:12:59;;;;;;;3.90;1.50;;;19.90;93.10;;;;;;5112915;28;20047;-43
2022/07/05 07:15:26;;;;;;;2.65;0.98;;;19.90;92.70;;;;;;5112404;28;20101;-43
2022/07/05 07:17:52;;;;;;;4.18;1.75;;;19.90;92.60;;;;;;5112789;28;20070;-43
2022/07/05 07:20:19;;;;;;;6.00;1.70;;;20.00;92.50;;;;;;5110876;28;20059;-43
2022/07/05 07:22:47;;;;;;;5.00;1.42;;;20.00;92.20;;;;;;5112313;28;20087;-42
2022/07/05 07:25:14;;;;;;;3.80;1.10;;;19.90;91.90;;;;;;5112306;28;20127;-42
2022/07/05 07:27:44;;;;;;;5.78;1.25;;;19.90;91.90;;;;;;5112437;28;20044;-42
2022/07/05 07:30:12;;;;;;;4.03;1.10;;;20.00;91.80;;;;;;5112381;28;20047;-42
2022/07/05 07:32:39;;;;;;;3.55;1.23;;;19.90;91.80;;;;;;5112286;28;20071;-43
2022/07/05 07:35:06;;;;;;;4.80;1.05;;;20.00;91.70;;;;;;5112144;28;20127;-43
2022/07/05 07:37:33;;;;;;;3.33;1.00;;;20.10;91.40;;;;;;5112229;28;20097;-44
2022/07/05 07:40:02;;;;;;;5.13;1.17;;;20.20;91.30;;;;;;5110888;28;20571;-43
2022/07/05 07:42:29;;;;;;;5.18;1.25;;;20.30;91.10;;;;;;5111236;28;20059;-43
2022/07/05 07:44:56;;;;;;;4.65;1.30;;;20.50;91.20;;;;;;5111227;28;20135;-44
2022/07/05 07:47:22;;;;;;;4.50;1.10;;;20.70;90.90;;;;;;5112045;28;20126;-44
2022/07/05 07:49:49;;;;;;;4.13;1.00;;;21.00;90.40;;;;;;5111137;28;20138;-42
2022/07/05 07:52:16;;;;;;;6.22;1.58;;;21.20;90.10;;;;;;5111872;28;20143;-43
2022/07/05 07:54:43;;;;;;;6.07;1.83;;;21.30;90.00;;;;;;5110520;28;20090;-42
2022/07/05 07:57:11;;;;;;;7.38;1.30;;;21.50;89.40;;;;;;5094740;28;20134;-43
2022/07/05 07:59:37;;;;;;;4.55;1.27;;;21.60;88.10;;;;;;5091794;28;20087;-43
2022/07/05 08:02:05;;;;;;;4.30;1.20;;;21.60;87.90;;;;;;5090327;28;20131;-43
2022/07/05 08:04:31;;;;;;;5.10;1.00;;;21.70;87.70;;;;;;5091549;28;20134;-43
2022/07/05 08:06:58;;;;;;;3.08;0.85;;;21.70;86.10;;;;;;5091459;28;20483;-43
2022/07/05 08:09:25;;;;;;;3.38;0.73;;;21.70;84.30;;;;;;5091370;28;20575;-43
2022/07/05 08:11:52;;;;;;;5.50;1.00;;;21.60;84.40;;;;;;5091787;28;20138;-43
2022/07/05 08:14:20;;;;;;;7.53;1.13;;;21.60;85.10;;;;;;5090759;28;20109;-44
2022/07/05 08:16:47;;;;;;;4.43;1.08;;;21.50;85.00;;;;;;5098950;28;20101;-43
2022/07/05 08:21:58;;;;;;;4.90;1.20;;;21.60;85.80;;;;;;5073799;28;20141;-44
2022/07/05 08:24:24;;;;;;;6.07;1.33;;;21.70;85.10;;;;;;5099095;28;20498;-43
2022/07/05 08:26:51;;;;;;;5.75;1.90;;;21.80;83.70;;;;;;5115803;28;20126;-42
2022/07/05 08:29:19;;;;;;;10.50;1.52;;;22.00;82.50;;;;;;5115064;28;20543;-42
2022/07/05 08:31:49;;;;;;;7.10;1.27;;;22.20;81.80;;;;;;5114496;28;20090;-42
2022/07/05 08:34:17;;;;;;;6.93;1.13;;;22.20;81.10;;;;;;5115218;28;20586;-43
2022/07/05 08:36:44;;;;;;;7.63;1.05;;;22.30;79.60;;;;;;5100752;27;20050;-43
2022/07/05 08:39:11;;;;;;;3.70;0.90;;;22.50;78.50;;;;;;5114314;28;20130;-43
2022/07/05 08:41:40;;;;;;;6.03;1.00;;;22.60;78.30;;;;;;5114252;28;20059;-43
2022/07/05 08:44:07;;;;;;;5.90;1.30;;;22.80;78.10;;;;;;5102402;27;20158;-42
2022/07/05 08:46:38;;;;;;;4.18;0.93;;;23.00;77.50;;;;;;5094596;28;20147;-42
2022/07/05 08:49:05;;;;;;;4.05;0.93;;;23.20;76.00;;;;;;5094657;28;20078;-44
2022/07/05 08:51:34;;;;;;;4.55;0.82;;;23.40;74.00;;;;;;5101171;27;20040;-42
2022/07/05 08:54:01;;;;;;;3.65;0.70;;;23.60;73.70;;;;;;5115160;28;20493;-43
2022/07/05 08:56:27;;;;;;;3.85;0.80;;;23.70;72.80;;;;;;5113766;28;20131;-42
2022/07/05 08:58:54;;;;;;;4.32;1.00;;;23.90;73.20;;;;;;5114827;28;20495;-42
2022/07/05 09:01:21;;;;;;;3.58;0.88;;;24.00;70.70;;;;;;5113689;28;20530;-43
2022/07/05 09:03:50;;;;;;;6.70;0.88;;;24.10;69.20;;;;;;5114639;28;20139;-43
2022/07/05 09:06:18;;;;;;;4.47;1.00;;;24.00;68.90;;;;;;5114669;28;20122;-43
2022/07/05 09:08:45;;;;;;;5.03;0.98;;;23.90;68.90;;;;;;5114664;28;20113;-43
2022/07/05 09:11:12;;;;;;;2.40;0.80;;;23.80;68.70;;;;;;5106216;28;20079;-43
2022/07/05 09:13:40;;;;;;;2.30;0.70;;;23.80;69.10;;;;;;5093234;28;20052;-43
2022/07/05 09:16:07;;;;;;;2.53;0.65;;;23.70;69.40;;;;;;5110421;28;20059;-43
2022/07/05 09:18:41;;;;;;;3.15;1.25;;;23.50;69.00;;;;;;5110824;28;20047;-43
2022/07/05 09:21:20;;;;;;;4.05;1.10;;;23.50;68.50;;;;;;5110587;28;20473;-43
2022/07/05 09:23:55;;;;;;;4.80;1.08;;;23.50;68.90;;;;;;5112752;28;20503;-43
2022/07/05 09:26:21;;;;;;;3.22;0.60;;;23.60;69.30;;;;;;5112037;28;20069;-45
2022/07/05 09:28:55;;;;;;;4.05;0.80;;;23.60;68.80;;;;;;5112220;28;20459;-43
2022/07/05 09:31:29;;;;;;;3.45;0.93;;;23.50;68.50;;;;;;5110007;28;20101;-43
2022/07/05 09:34:04;;;;;;;4.07;0.93;;;23.40;69.40;;;;;;5109871;28;20126;-42
2022/07/05 09:36:47;;;;;;;6.82;1.08;;;23.30;69.90;;;;;;5112977;28;20130;-44
2022/07/05 09:39:14;;;;;;;3.45;0.85;;;23.40;70.00;;;;;;5113138;28;20396;-43
2022/07/05 09:41:41;;;;;;;5.03;0.80;;;23.30;69.20;;;;;;5112921;28;20056;-43
2022/07/05 09:44:07;;;;;;;5.53;1.13;;;23.20;69.10;;;;;;5114277;28;20094;-43
2022/07/05 09:46:34;;;;;;;4.32;1.30;;;23.10;68.60;;;;;;5114029;28;20083;-43
2022/07/05 09:49:01;;;;;;;7.40;0.90;;;23.10;68.50;;;;;;5113127;28;20447;-43
2022/07/05 09:51:28;;;;;;;4.38;0.70;;;23.10;68.90;;;;;;5101246;27;20044;-43
2022/07/05 09:53:58;;;;;;;6.43;0.77;;;23.20;69.10;;;;;;5093379;28;20060;-43
2022/07/05 09:56:29;;;;;;;6.38;1.90;;;23.20;69.20;;;;;;5093190;28;20497;-43
2022/07/05 09:58:56;;;;;;;6.35;0.93;;;23.30;68.80;;;;;;5110678;28;20048;-42
2022/07/05 10:01:26;;;;;;;4.72;1.05;;;23.30;69.10;;;;;;5112486;28;20087;-44
2022/07/05 10:03:53;;;;;;;2.92;1.20;;;23.40;69.20;;;;;;5113702;28;20115;-43
2022/07/05 10:06:20;;;;;;;5.25;1.08;;;23.50;69.00;;;;;;5113508;28;20054;-43
2022/07/05 10:08:47;;;;;;;3.60;0.93;;;23.70;69.10;;;;;;5111072;28;20083;-44
2022/07/05 10:11:15;;;;;;;5.28;1.20;;;23.80;68.70;;;;;;5101543;28;20130;-43
2022/07/05 10:13:42;;;;;;;4.13;0.90;;;23.80;68.80;;;;;;5097093;28;20463;-45
2022/07/05 10:16:09;;;;;;;6.68;1.17;;;23.70;68.30;;;;;;5113418;28;20467;-44
2022/07/05 10:18:36;;;;;;;2.85;1.00;;;23.70;67.70;;;;;;5113334;28;20079;-43
2022/07/05 10:21:04;;;;;;;2.75;0.73;;;23.50;67.20;;;;;;5113305;28;20130;-44
2022/07/05 10:23:30;;;;;;;2.70;0.85;;;23.60;66.80;;;;;;5111856;28;20578;-44
2022/07/05 10:25:57;;;;;;;6.60;1.20;;;23.50;66.80;;;;;;5101492;28;20123;-42
2022/07/05 10:28:25;;;;;;;2.20;1.00;;;23.50;67.50;;;;;;5092895;28;20127;-44
2022/07/05 10:30:52;;;;;;;3.88;0.90;;;23.40;67.70;;;;;;5102809;28;20713;-44
2022/07/05 10:33:20;;;;;;;4.22;0.98;;;23.30;67.60;;;;;;5112038;28;20079;-43
2022/07/05 10:35:47;;;;;;;3.85;0.90;;;23.20;67.80;;;;;;5113131;28;20100;-43
2022/07/05 10:38:14;;;;;;;8.73;1.40;;;23.10;68.20;;;;;;5113026;28;20063;-44
2022/07/05 10:40:41;;;;;;;3.22;1.30;;;23.10;68.60;;;;;;5112164;28;20083;-43
2022/07/05 10:43:10;;;;;;;4.45;0.90;;;23.10;68.50;;;;;;5111367;28;20092;-42
2022/07/05 10:45:39;;;;;;;4.07;1.10;;;22.90;68.70;;;;;;5110598;28;20507;-44
2022/07/05 10:48:16;;;;;;;5.45;1.20;;;23.00;69.30;;;;;;5091199;28;20051;-43
2022/07/05 10:50:51;;;;;;;3.95;0.98;;;23.10;69.30;;;;;;5092439;28;20552;-43
2022/07/05 10:53:18;;;;;;;4.13;0.90;;;23.00;68.70;;;;;;5091115;28;20083;-44
2022/07/05 10:55:49;;;;;;;5.90;1.00;;;23.00;69.10;;;;;;5092557;28;20087;-44
2022/07/05 10:58:32;;;;;;;2.55;1.00;;;22.90;69.20;;;;;;5092308;28;20091;-44
2022/07/05 11:01:39;;;;;;;3.55;1.00;;;22.80;69.70;;;;;;5092217;28;20043;-43
2022/07/05 11:04:18;;;;;;;4.47;0.85;;;22.60;69.20;;;;;;5093031;28;20047;-43
2022/07/05 11:06:46;;;;;;;4.63;1.10;;;22.40;70.80;;;;;;5103044;28;20086;-43
2022/07/05 11:09:16;;;;;;;2.92;1.00;;;22.40;72.00;;;;;;5112463;28;20402;-44
2022/07/05 11:11:43;;;;;;;5.80;1.35;;;22.50;71.40;;;;;;5110124;28;20047;-43
2022/07/05 11:14:31;;;;;;;5.07;0.80;;;22.50;71.10;;;;;;5109488;28;20546;-43
2022/07/05 11:17:11;;;;;;;3.60;0.80;;;22.60;70.90;;;;;;5109652;28;20199;-42
2022/07/05 11:20:01;;;;;;;5.57;1.02;;;22.70;71.60;;;;;;5099386;28;20059;-42
2022/07/05 11:22:28;;;;;;;9.50;1.30;;;23.00;70.80;;;;;;5107620;28;20341;-42
2022/07/05 11:24:54;;;;;;;3.67;1.13;;;23.00;69.60;;;;;;5111315;28;20134;-44
2022/07/05 11:27:21;;;;;;;3.80;1.13;;;23.10;69.30;;;;;;5112319;28;20052;-43
2022/07/05 11:29:49;;;;;;;7.15;1.00;;;23.20;69.60;;;;;;5111299;28;20079;-44
2022/07/05 11:32:17;;;;;;;5.90;1.25;;;23.60;68.70;;;;;;5112075;28;20043;-43
2022/07/05 11:34:45;;;;;;;6.95;1.50;;;23.70;68.40;;;;;;5105224;28;20683;-43
2022/07/05 11:37:23;;;;;;;4.60;1.20;;;23.80;68.00;;;;;;5091982;28;20096;-43
2022/07/05 11:40:32;;;;;;;6.45;1.25;;;23.60;67.80;;;;;;5096434;28;20481;-43
2022/07/05 11:42:59;;;;;;;4.38;0.90;;;23.40;68.00;;;;;;5091642;28;20453;-42
2022/07/05 11:45:26;;;;;;;3.90;0.93;;;23.10;68.20;;;;;;5090712;28;20342;-43
2022/07/05 11:47:54;;;;;;;6.10;1.08;;;23.00;68.50;;;;;;5094257;28;20079;-43
2022/07/05 11:50:26;;;;;;;6.05;1.00;;;23.10;68.50;;;;;;5111260;28;20124;-42
2022/07/05 11:52:52;;;;;;;3.45;0.90;;;23.20;68.00;;;;;;5116545;28;20130;-42
2022/07/05 11:55:19;;;;;;;7.32;1.15;;;23.40;67.10;;;;;;5114933;28;20126;-44
2022/07/05 11:57:50;;;;;;;5.82;1.00;;;23.60;66.80;;;;;;5110215;28;20039;-43
2022/07/05 12:00:29;;;;;;;2.88;0.73;;;23.80;64.80;;;;;;5104319;28;20126;-43
2022/07/05 12:02:56;;;;;;;5.90;1.02;;;24.00;64.80;;;;;;5114677;28;20056;-44
2022/07/05 12:05:23;;;;;;;4.30;0.98;;;24.10;64.80;;;;;;5100040;28;20131;-43
2022/07/05 12:07:50;;;;;;;6.82;1.08;;;24.30;63.80;;;;;;5094223;28;20142;-43
2022/07/05 12:13:08;;;;;;;6.28;1.13;;;24.70;63.00;;;;;;5095023;28;20051;-43
2022/07/05 12:15:35;;;;;;;3.15;0.88;;;25.00;61.20;;;;;;5095920;28;20051;-43
2022/07/05 12:18:04;;;;;;;4.03;0.90;;;25.00;60.30;;;;;;5095066;28;20048;-43
2022/07/05 12:20:31;;;;;;;3.30;0.65;;;25.20;59.90;;;;;;5114006;28;20057;-42
2022/07/05 12:22:59;;;;;;;5.35;0.73;;;25.30;59.40;;;;;;5114808;28;20488;-43
2022/07/05 12:25:26;;;;;;;1.85;0.65;;;25.30;59.70;;;;;;5112590;28;20403;-43
2022/07/05 12:27:54;;;;;;;6.20;0.68;;;25.40;58.90;;;;;;5111662;28;20454;-44
2022/07/05 12:30:22;;;;;;;4.47;1.10;;;25.40;58.60;;;;;;5113554;27;20054;-43
2022/07/05 12:32:56;;;;;;;8.00;0.70;;;25.50;57.90;;;;;;5109710;28;20097;-43
2022/07/05 12:35:30;;;;;;;2.67;0.60;;;25.70;58.10;;;;;;5113052;28;20055;-43
2022/07/05 12:37:57;;;;;;;4.25;0.65;;;25.90;57.30;;;;;;5102296;27;20119;-43
2022/07/05 12:40:24;;;;;;;1.85;0.60;;;26.00;56.20;;;;;;5104699;28;20085;-44
2022/07/05 12:43:01;;;;;;;5.05;0.73;;;26.00;56.50;;;;;;5116364;28;20059;-43
2022/07/05 12:45:30;;;;;;;2.47;0.68;;;25.90;57.30;;;;;;5110442;27;20079;-43
2022/07/05 12:47:57;;;;;;;5.10;0.77;;;25.70;58.60;;;;;;5128735;27;20138;-43
2022/07/05 12:50:25;;;;;;;5.57;0.80;;;25.70;59.70;;;;;;5094702;28;20095;-43
2022/07/05 12:58:01;;;;;;;4.78;0.70;;;25.90;60.70;;;;;;5095536;28;20056;-43
2022/07/05 12:58:33;;;;;;;5.43;0.88;;;26.30;59.30;;;;;;5094175;28;20403;-43
2022/07/05 13:01:01;;;;;;;8.63;0.80;;;26.10;59.40;;;;;;5095606;28;20555;-44